Plano, Iowa
Current Conditions -  °F | °C
As of 6:10 PM on Friday 28 Nov 2014 (Local Time) from KTVK Reporting Station
Clear Clear  
Wind Chill: 32°   Ceiling: Unl
Heat Index: 37°   Visibility: 10mi
Dew Point: 32°   Wind: 7mph
Humidity: 81%   Direction: 120°ESE
Pressure: 29.8"   Gusts: NA
Location:  40.76°N, 93.05°W
Report Text: KTVK 290010Z AUTO 12006KT 10SM CLR 03/00 A2980 RMK AO2
Loading
Personal Weather Stations






























Interactive Weather Map New forecast layout! Learn more

10-Day Weather Forecast

Advertisements
Track Severe Weather on mobile